Time;durP1;ratioP1;P1;durP2;ratioP2;P2;SDS_P1;SDS_P2;PMS_P1;PMS_P2;Temp;Humidity;BMP_temperature;BMP_pressure;BME280_temperature;BME280_humidity;BME280_pressure;Samples;Min_cycle;Max_cycle;Signal;HPM_P1;HPM_P2
2022/12/08 00:01:39;;;;;;;12.40;10.87;;;;;;;;;;5071862;28;20459;-76
2022/12/08 00:04:06;;;;;;;11.20;9.47;;;;;;;;;;5071497;28;20460;-78
2022/12/08 00:09:22;;;;;;;11.37;10.17;;;;;;;;;;5071753;28;20407;-77
2022/12/08 00:11:51;;;;;;;10.73;9.70;;;;;;;;;;5071564;28;20820;-77
2022/12/08 00:14:19;;;;;;;10.60;9.50;;;;;;;;;;5071113;28;20440;-77
2022/12/08 00:16:46;;;;;;;12.20;10.23;;;;;;;;;;5070988;28;20464;-77
2022/12/08 00:19:13;;;;;;;10.67;9.57;;;;;;;;;;5071439;28;20530;-75
2022/12/08 00:21:40;;;;;;;11.07;9.67;;;;;;;;;;5071782;28;20455;-76
2022/12/08 00:24:08;;;;;;;11.40;9.30;;;;;;;;;;5071278;28;20458;-76
2022/12/08 00:26:35;;;;;;;10.47;8.40;;;;;;;;;;5072107;28;20490;-78
2022/12/08 00:29:02;;;;;;;10.80;9.53;;;;;;;;;;5072577;28;20451;-76
2022/12/08 00:31:30;;;;;;;11.10;9.63;;;;;;;;;;5074467;28;20447;-76
2022/12/08 00:33:58;;;;;;;11.53;10.00;;;;;;;;;;5071477;28;20472;-76
2022/12/08 00:36:25;;;;;;;11.87;10.67;;;;;;;;;;5070983;28;20454;-77
2022/12/08 00:38:52;;;;;;;9.23;8.33;;;;;;;;;;5071694;28;20442;-76
2022/12/08 00:42:10;;;;;;;11.43;10.33;;;;;;;;;;5071611;28;20505;-76
2022/12/08 00:44:08;;;;;;;11.37;10.17;;;;;;;;;;5071713;28;20526;-76
2022/12/08 00:46:36;;;;;;;11.53;9.93;;;;;;;;;;5074520;28;20479;-77
2022/12/08 00:49:04;;;;;;;11.60;10.40;;;;;;;;;;5072057;28;20448;-77
2022/12/08 00:51:31;;;;;;;10.97;9.53;;;;;;;;;;5072719;28;20447;-76
2022/12/08 00:53:58;;;;;;;12.10;10.80;;;;;;;;;;5073156;28;20446;-76
2022/12/08 00:56:25;;;;;;;11.43;9.77;;;;;;;;;;5070531;28;20501;-76
2022/12/08 00:58:52;;;;;;;12.30;9.80;;;;;;;;;;5070528;28;20447;-78
2022/12/08 01:01:19;;;;;;;11.50;9.50;;;;;;;;;;5070778;28;20456;-78
2022/12/08 01:03:48;;;;;;;10.10;9.10;;;;;;;;;;5070444;28;20455;-77
2022/12/08 01:06:15;;;;;;;10.33;9.30;;;;;;;;;;5069939;28;20494;-77
2022/12/08 01:08:42;;;;;;;11.33;10.07;;;;;;;;;;5070281;28;20441;-77
2022/12/08 01:11:11;;;;;;;11.20;9.47;;;;;;;;;;5070782;28;20453;-77
2022/12/08 01:13:38;;;;;;;10.53;9.40;;;;;;;;;;5069200;28;21049;-75
2022/12/08 01:16:05;;;;;;;9.50;8.57;;;;;;;;;;5070272;28;20470;-77
2022/12/08 01:18:32;;;;;;;10.33;9.33;;;;;;;;;;5070557;28;20441;-76
2022/12/08 01:21:03;;;;;;;10.50;9.43;;;;;;;;;;5070897;28;20549;-77
2022/12/08 01:23:30;;;;;;;10.20;9.20;;;;;;;;;;5093687;28;20427;-76
2022/12/08 01:26:01;;;;;;;8.70;7.90;;;;;;;;;;5095256;28;20591;-75
2022/12/08 01:28:28;;;;;;;10.00;9.00;;;;;;;;;;5092325;28;20423;-76
2022/12/08 01:30:55;;;;;;;10.57;9.33;;;;;;;;;;5072096;28;20470;-76
2022/12/08 01:33:23;;;;;;;10.27;9.27;;;;;;;;;;5071223;28;20440;-77
2022/12/08 01:35:50;;;;;;;10.40;9.37;;;;;;;;;;5070809;28;20470;-76
2022/12/08 01:38:18;;;;;;;9.97;9.00;;;;;;;;;;5070810;28;20453;-76
2022/12/08 01:40:45;;;;;;;11.97;9.03;;;;;;;;;;5070008;28;20453;-77
2022/12/08 01:43:14;;;;;;;9.40;8.40;;;;;;;;;;5069923;28;20445;-78
2022/12/08 01:45:41;;;;;;;10.23;9.23;;;;;;;;;;5070775;28;20494;-77
2022/12/08 01:48:10;;;;;;;10.30;9.23;;;;;;;;;;5070723;28;20454;-78
2022/12/08 01:50:39;;;;;;;9.77;8.57;;;;;;;;;;5070478;28;20447;-77
2022/12/08 01:53:08;;;;;;;9.47;8.37;;;;;;;;;;5069903;28;20812;-77
2022/12/08 01:55:39;;;;;;;10.50;9.30;;;;;;;;;;5069381;28;21072;-76
2022/12/08 01:58:08;;;;;;;9.90;8.90;;;;;;;;;;5070456;28;20439;-78
2022/12/08 02:00:35;;;;;;;12.10;10.23;;;;;;;;;;5070624;28;20446;-77
2022/12/08 02:03:04;;;;;;;12.00;10.63;;;;;;;;;;5070062;28;20442;-77
2022/12/08 02:05:33;;;;;;;12.97;10.60;;;;;;;;;;5070002;28;20490;-76
2022/12/08 02:08:03;;;;;;;10.90;9.43;;;;;;;;;;5070237;28;20438;-77
2022/12/08 02:10:33;;;;;;;11.00;9.70;;;;;;;;;;5069954;28;20437;-77
2022/12/08 02:13:03;;;;;;;11.83;10.00;;;;;;;;;;5069625;28;20822;-77
2022/12/08 02:15:33;;;;;;;9.87;8.87;;;;;;;;;;5070197;28;20464;-76
2022/12/08 02:18:04;;;;;;;10.70;9.37;;;;;;;;;;5070246;28;20449;-77
2022/12/08 02:20:38;;;;;;;11.50;8.93;;;;;;;;;;5070154;28;20425;-77
2022/12/08 02:23:08;;;;;;;12.70;9.63;;;;;;;;;;5069693;28;20429;-76
2022/12/08 02:25:40;;;;;;;10.40;9.30;;;;;;;;;;5072986;28;20489;-77
2022/12/08 02:28:18;;;;;;;11.00;9.90;;;;;;;;;;5081334;28;20430;-76
2022/12/08 02:30:49;;;;;;;10.07;9.00;;;;;;;;;;5081340;28;20442;-76
2022/12/08 02:33:35;;;;;;;11.83;9.10;;;;;;;;;;5080586;28;20697;-76
2022/12/08 02:36:08;;;;;;;11.33;10.20;;;;;;;;;;5081229;28;20460;-76
2022/12/08 02:38:41;;;;;;;11.57;10.20;;;;;;;;;;5078087;28;20441;-77
2022/12/08 02:41:14;;;;;;;11.60;9.67;;;;;;;;;;5073690;28;20896;-77
2022/12/08 02:43:43;;;;;;;10.60;9.60;;;;;;;;;;5073273;28;20433;-77
2022/12/08 02:46:12;;;;;;;13.87;10.60;;;;;;;;;;5073840;28;20846;-76
2022/12/08 02:48:39;;;;;;;11.50;10.10;;;;;;;;;;5074113;28;20806;-77
2022/12/08 02:51:08;;;;;;;10.93;9.83;;;;;;;;;;5073643;28;20445;-76
2022/12/08 02:53:35;;;;;;;11.70;10.40;;;;;;;;;;5073234;28;20445;-77
2022/12/08 02:56:05;;;;;;;10.47;9.37;;;;;;;;;;5073038;28;20462;-76
2022/12/08 02:58:39;;;;;;;10.60;9.10;;;;;;;;;;5073285;28;20442;-77
2022/12/08 03:01:15;;;;;;;10.43;8.90;;;;;;;;;;5073142;28;20434;-75
2022/12/08 03:03:45;;;;;;;9.60;8.57;;;;;;;;;;5072660;28;20425;-78
2022/12/08 03:06:16;;;;;;;11.97;10.10;;;;;;;;;;5072508;28;20495;-77
2022/12/08 03:08:50;;;;;;;11.77;9.20;;;;;;;;;;5073065;28;20423;-76
2022/12/08 03:11:20;;;;;;;9.80;8.80;;;;;;;;;;5072618;28;20464;-77
2022/12/08 03:13:48;;;;;;;10.27;9.17;;;;;;;;;;5072062;28;20448;-76
2022/12/08 03:16:18;;;;;;;12.00;9.53;;;;;;;;;;5072589;28;20461;-76
2022/12/08 03:18:48;;;;;;;11.67;9.10;;;;;;;;;;5072698;28;20448;-77
2022/12/08 03:21:18;;;;;;;9.20;8.40;;;;;;;;;;5072940;28;20495;-77
2022/12/08 03:23:47;;;;;;;8.93;8.03;;;;;;;;;;5073259;28;20464;-77
2022/12/08 03:26:17;;;;;;;9.30;8.40;;;;;;;;;;5072361;28;20492;-77
2022/12/08 03:28:45;;;;;;;11.23;9.90;;;;;;;;;;5073150;28;20440;-78
2022/12/08 03:31:13;;;;;;;12.80;10.63;;;;;;;;;;5072879;28;20447;-76
2022/12/08 03:33:41;;;;;;;12.37;10.10;;;;;;;;;;5074292;28;20945;-76
2022/12/08 03:36:10;;;;;;;11.70;8.70;;;;;;;;;;5071980;28;20465;-78
2022/12/08 03:38:39;;;;;;;12.00;9.33;;;;;;;;;;5072449;28;20457;-77
2022/12/08 03:41:19;;;;;;;12.77;9.90;;;;;;;;;;5072571;28;20441;-77
2022/12/08 03:43:47;;;;;;;12.40;10.60;;;;;;;;;;5072087;28;20441;-77
2022/12/08 03:46:14;;;;;;;12.13;9.90;;;;;;;;;;5074783;28;20474;-75
2022/12/08 03:48:41;;;;;;;13.40;10.70;;;;;;;;;;5074820;28;20440;-76
2022/12/08 03:51:08;;;;;;;12.03;9.97;;;;;;;;;;5075363;28;20442;-76
2022/12/08 03:53:35;;;;;;;13.30;10.60;;;;;;;;;;5073890;28;20450;-77
2022/12/08 03:56:05;;;;;;;10.47;8.83;;;;;;;;;;5076836;28;20464;-78
2022/12/08 03:58:32;;;;;;;10.40;9.30;;;;;;;;;;5076151;28;20940;-77
2022/12/08 04:00:59;;;;;;;10.90;9.80;;;;;;;;;;5076201;28;20449;-77
2022/12/08 04:03:26;;;;;;;14.80;9.27;;;;;;;;;;5075917;28;20498;-76
2022/12/08 04:05:54;;;;;;;10.37;8.83;;;;;;;;;;5071489;28;20484;-76
2022/12/08 04:08:21;;;;;;;11.80;10.13;;;;;;;;;;5071824;28;20445;-77
2022/12/08 04:10:48;;;;;;;13.00;9.30;;;;;;;;;;5071699;28;20448;-77
2022/12/08 04:13:16;;;;;;;13.17;9.20;;;;;;;;;;5071057;28;20441;-76
2022/12/08 04:15:45;;;;;;;12.97;10.60;;;;;;;;;;5071302;28;20852;-76
2022/12/08 04:18:12;;;;;;;10.83;9.57;;;;;;;;;;5071639;28;20498;-77
2022/12/08 04:20:40;;;;;;;12.87;11.23;;;;;;;;;;5071574;28;20444;-76
2022/12/08 04:23:07;;;;;;;11.33;10.13;;;;;;;;;;5071211;28;20904;-77
2022/12/08 04:25:43;;;;;;;12.10;10.57;;;;;;;;;;5073868;28;20461;-76
2022/12/08 04:28:11;;;;;;;10.87;9.30;;;;;;;;;;5097112;28;20465;-75
2022/12/08 04:30:41;;;;;;;11.30;9.00;;;;;;;;;;5096965;28;20416;-77
2022/12/08 04:33:08;;;;;;;12.90;10.20;;;;;;;;;;5091539;28;20474;-77
2022/12/08 04:35:35;;;;;;;11.47;10.07;;;;;;;;;;5072317;28;20465;-77
2022/12/08 04:38:02;;;;;;;11.07;9.43;;;;;;;;;;5072105;28;20455;-76
2022/12/08 04:40:29;;;;;;;14.23;10.40;;;;;;;;;;5071787;28;20452;-77
2022/12/08 04:42:56;;;;;;;11.00;9.47;;;;;;;;;;5071010;28;20448;-78
2022/12/08 04:45:23;;;;;;;11.50;9.40;;;;;;;;;;5071395;28;20476;-77
2022/12/08 04:47:52;;;;;;;11.13;10.03;;;;;;;;;;5070325;28;20484;-77
2022/12/08 04:50:19;;;;;;;12.67;9.60;;;;;;;;;;5071410;28;20441;-76
2022/12/08 04:52:46;;;;;;;12.13;10.10;;;;;;;;;;5070475;28;20441;-76
2022/12/08 04:55:13;;;;;;;14.67;10.70;;;;;;;;;;5071116;28;20465;-76
2022/12/08 04:57:40;;;;;;;11.90;9.50;;;;;;;;;;5070904;28;20449;-76
2022/12/08 05:00:08;;;;;;;11.77;10.07;;;;;;;;;;5070897;28;20455;-76
2022/12/08 05:02:35;;;;;;;11.37;10.17;;;;;;;;;;5070663;28;20440;-77
2022/12/08 05:05:03;;;;;;;12.33;9.73;;;;;;;;;;5066206;28;20483;-77
2022/12/08 05:07:30;;;;;;;10.20;9.20;;;;;;;;;;5071073;28;20461;-77
2022/12/08 05:09:58;;;;;;;11.80;10.03;;;;;;;;;;5064792;28;20445;-76
2022/12/08 05:12:25;;;;;;;11.70;9.73;;;;;;;;;;5050597;28;20968;-76
2022/12/08 05:14:52;;;;;;;12.97;10.43;;;;;;;;;;5050425;28;20445;-77
2022/12/08 05:17:19;;;;;;;11.90;9.90;;;;;;;;;;5050778;28;20440;-76
2022/12/08 05:19:46;;;;;;;12.37;10.43;;;;;;;;;;5050634;28;20449;-76
2022/12/08 05:22:15;;;;;;;13.70;10.10;;;;;;;;;;5050502;28;20442;-76
2022/12/08 05:24:42;;;;;;;13.10;10.10;;;;;;;;;;5050168;28;20461;-76
2022/12/08 05:27:10;;;;;;;11.77;10.43;;;;;;;;;;5050601;28;20488;-75
2022/12/08 05:29:37;;;;;;;16.13;10.27;;;;;;;;;;5050413;28;20481;-76
2022/12/08 05:32:04;;;;;;;11.47;10.27;;;;;;;;;;5050991;28;20450;-78
2022/12/08 05:34:31;;;;;;;11.50;10.30;;;;;;;;;;5050326;28;20451;-76
2022/12/08 05:36:58;;;;;;;12.00;9.23;;;;;;;;;;5050634;28;20469;-76
2022/12/08 05:39:26;;;;;;;10.43;9.33;;;;;;;;;;5050883;28;20453;-77
2022/12/08 05:41:53;;;;;;;10.70;9.03;;;;;;;;;;5050421;28;20453;-77
2022/12/08 05:44:21;;;;;;;13.90;10.37;;;;;;;;;;5050525;28;20499;-76
2022/12/08 05:46:48;;;;;;;12.30;10.97;;;;;;;;;;5063235;28;20576;-75
2022/12/08 05:49:15;;;;;;;12.50;10.23;;;;;;;;;;5052750;28;20442;-76
2022/12/08 05:51:42;;;;;;;12.60;11.37;;;;;;;;;;5066523;28;20440;-77
2022/12/08 05:54:09;;;;;;;12.50;10.30;;;;;;;;;;5069945;28;20437;-77
2022/12/08 05:56:38;;;;;;;10.50;9.23;;;;;;;;;;5071750;28;20456;-77
2022/12/08 05:59:06;;;;;;;11.73;10.53;;;;;;;;;;5072605;28;20448;-77
2022/12/08 06:01:33;;;;;;;20.40;13.60;;;;;;;;;;5074786;28;20480;-76
2022/12/08 06:04:01;;;;;;;14.90;12.40;;;;;;;;;;5074695;28;20455;-76
2022/12/08 06:06:29;;;;;;;12.30;10.90;;;;;;;;;;5074199;28;20480;-76
2022/12/08 06:08:56;;;;;;;16.50;11.90;;;;;;;;;;5074239;28;20433;-77
2022/12/08 06:11:24;;;;;;;11.93;10.60;;;;;;;;;;5074283;28;20448;-77
2022/12/08 06:13:52;;;;;;;11.60;10.13;;;;;;;;;;5073696;28;20790;-78
2022/12/08 06:16:19;;;;;;;13.00;10.40;;;;;;;;;;5073444;28;20999;-77
2022/12/08 06:18:47;;;;;;;12.53;10.80;;;;;;;;;;5073958;28;20487;-76
2022/12/08 06:21:14;;;;;;;13.53;10.93;;;;;;;;;;5073718;28;20955;-77
2022/12/08 06:23:42;;;;;;;10.33;8.80;;;;;;;;;;5073537;28;20432;-76
2022/12/08 06:26:10;;;;;;;11.43;10.20;;;;;;;;;;5073906;28;20467;-76
2022/12/08 06:28:38;;;;;;;16.43;11.27;;;;;;;;;;5074617;28;20483;-76
2022/12/08 06:31:09;;;;;;;12.90;11.07;;;;;;;;;;5076193;28;20440;-77
2022/12/08 06:33:37;;;;;;;11.03;9.93;;;;;;;;;;5085420;28;20429;-76
2022/12/08 06:36:04;;;;;;;15.70;11.00;;;;;;;;;;5074053;28;20579;-77
2022/12/08 06:38:32;;;;;;;14.00;10.60;;;;;;;;;;5073571;28;20959;-78
2022/12/08 06:40:59;;;;;;;12.27;10.70;;;;;;;;;;5076566;28;20510;-77
2022/12/08 06:43:27;;;;;;;23.60;17.83;;;;;;;;;;5073043;28;20445;-77
2022/12/08 06:45:54;;;;;;;12.33;10.30;;;;;;;;;;5074637;28;20468;-78
2022/12/08 06:48:22;;;;;;;11.60;9.70;;;;;;;;;;5080839;28;20827;-77
2022/12/08 06:50:49;;;;;;;11.37;9.47;;;;;;;;;;5080437;28;20449;-77
2022/12/08 06:53:17;;;;;;;13.20;9.23;;;;;;;;;;5078872;28;20800;-79
2022/12/08 06:55:44;;;;;;;16.03;9.30;;;;;;;;;;5086084;28;20475;-78
2022/12/08 06:58:12;;;;;;;13.87;9.90;;;;;;;;;;5073883;28;20453;-77
2022/12/08 07:00:39;;;;;;;11.80;10.10;;;;;;;;;;5073226;28;20964;-77
2022/12/08 07:03:07;;;;;;;15.30;10.10;;;;;;;;;;5072924;28;20463;-78
2022/12/08 07:05:36;;;;;;;11.67;10.10;;;;;;;;;;5072478;28;20827;-77
2022/12/08 07:08:03;;;;;;;11.37;9.50;;;;;;;;;;5071956;28;20968;-77
2022/12/08 07:10:30;;;;;;;12.77;9.70;;;;;;;;;;5071861;28;20452;-76
2022/12/08 07:12:58;;;;;;;16.10;10.90;;;;;;;;;;5072982;28;20444;-78
2022/12/08 07:15:25;;;;;;;13.00;11.10;;;;;;;;;;5072904;28;20464;-77
2022/12/08 07:17:52;;;;;;;15.13;11.13;;;;;;;;;;5072990;28;20464;-77
2022/12/08 07:20:19;;;;;;;15.83;11.23;;;;;;;;;;5073465;28;20447;-78
2022/12/08 07:22:50;;;;;;;17.27;12.30;;;;;;;;;;5089236;28;20440;-76
2022/12/08 07:25:17;;;;;;;16.50;11.50;;;;;;;;;;5095777;28;20469;-77
2022/12/08 07:27:44;;;;;;;15.37;11.13;;;;;;;;;;5094745;28;20472;-77
2022/12/08 07:30:12;;;;;;;12.90;11.50;;;;;;;;;;5078099;28;20796;-77
2022/12/08 07:32:39;;;;;;;22.97;13.07;;;;;;;;;;5073733;28;20441;-76
2022/12/08 07:35:06;;;;;;;14.37;11.20;;;;;;;;;;5077706;28;20463;-76
2022/12/08 07:37:34;;;;;;;22.63;11.37;;;;;;;;;;5072820;28;20982;-76
2022/12/08 07:40:02;;;;;;;16.57;11.53;;;;;;;;;;5072687;28;20445;-78
2022/12/08 07:42:29;;;;;;;14.97;11.80;;;;;;;;;;5072897;28;20441;-77
2022/12/08 07:44:56;;;;;;;14.83;12.27;;;;;;;;;;5072490;28;20464;-76
2022/12/08 07:47:24;;;;;;;17.67;13.70;;;;;;;;;;5072401;28;20492;-78
2022/12/08 07:49:51;;;;;;;15.93;12.60;;;;;;;;;;5072949;28;20448;-76
2022/12/08 07:52:18;;;;;;;15.00;11.43;;;;;;;;;;5073316;28;20480;-77
2022/12/08 07:54:45;;;;;;;16.33;11.23;;;;;;;;;;5071491;28;20455;-77
2022/12/08 07:57:13;;;;;;;19.87;12.53;;;;;;;;;;5072321;28;20440;-77
2022/12/08 07:59:40;;;;;;;13.63;11.23;;;;;;;;;;5072208;28;20967;-77
2022/12/08 08:02:12;;;;;;;17.33;11.33;;;;;;;;;;5072000;28;20440;-77
2022/12/08 08:04:39;;;;;;;18.23;11.70;;;;;;;;;;5071757;28;20440;-78
2022/12/08 08:07:06;;;;;;;13.53;10.60;;;;;;;;;;5071757;28;20832;-77
2022/12/08 08:09:33;;;;;;;13.23;11.40;;;;;;;;;;5072026;28;20463;-78
2022/12/08 08:12:00;;;;;;;15.07;10.73;;;;;;;;;;5072006;28;20445;-76
2022/12/08 08:14:28;;;;;;;15.37;11.00;;;;;;;;;;5073281;28;20971;-77
2022/12/08 08:16:55;;;;;;;15.47;12.50;;;;;;;;;;5071896;28;20461;-76
2022/12/08 08:19:22;;;;;;;21.83;12.47;;;;;;;;;;5074945;28;20433;-77
2022/12/08 08:21:50;;;;;;;17.53;11.77;;;;;;;;;;5071616;28;20952;-77
2022/12/08 08:24:17;;;;;;;16.67;12.20;;;;;;;;;;5076139;28;20472;-77
2022/12/08 08:26:44;;;;;;;18.67;12.50;;;;;;;;;;5080255;28;20538;-78
2022/12/08 08:29:12;;;;;;;15.70;11.37;;;;;;;;;;5086163;28;20484;-79
2022/12/08 08:31:40;;;;;;;16.40;12.37;;;;;;;;;;5084133;28;20472;-78
2022/12/08 08:34:07;;;;;;;12.37;10.87;;;;;;;;;;5084724;28;20456;-79
2022/12/08 08:36:35;;;;;;;19.07;11.70;;;;;;;;;;5085409;28;20484;-77
2022/12/08 08:39:02;;;;;;;14.73;10.30;;;;;;;;;;5085107;28;20433;-77
2022/12/08 08:41:29;;;;;;;14.67;10.83;;;;;;;;;;5083459;28;20513;-79
2022/12/08 08:43:56;;;;;;;13.90;10.20;;;;;;;;;;5083297;28;20452;-78
2022/12/08 08:46:23;;;;;;;15.40;10.20;;;;;;;;;;5084331;28;20469;-77
2022/12/08 08:48:52;;;;;;;10.87;9.77;;;;;;;;;;5084020;28;20571;-78
2022/12/08 08:51:19;;;;;;;12.00;9.50;;;;;;;;;;5077205;28;20448;-77
2022/12/08 08:53:46;;;;;;;13.77;9.57;;;;;;;;;;5071244;28;20803;-77
2022/12/08 08:56:14;;;;;;;9.23;8.33;;;;;;;;;;5071625;28;20495;-76
2022/12/08 08:58:41;;;;;;;10.30;9.27;;;;;;;;;;5071317;28;20449;-78
2022/12/08 09:01:08;;;;;;;10.57;8.97;;;;;;;;;;5064513;28;20454;-78
2022/12/08 09:03:36;;;;;;;12.50;10.07;;;;;;;;;;5052792;28;20441;-78
2022/12/08 09:06:04;;;;;;;15.20;11.63;;;;;;;;;;5051533;28;20478;-76
2022/12/08 09:08:31;;;;;;;15.23;11.07;;;;;;;;;;5062314;28;20484;-78
2022/12/08 09:10:58;;;;;;;15.97;11.83;;;;;;;;;;5071939;28;20471;-77
2022/12/08 09:13:25;;;;;;;12.73;10.63;;;;;;;;;;5070742;28;20449;-77
2022/12/08 09:15:53;;;;;;;13.37;10.30;;;;;;;;;;5066669;28;20499;-77
2022/12/08 09:18:20;;;;;;;11.50;10.30;;;;;;;;;;5071239;28;20447;-78
2022/12/08 09:20:47;;;;;;;13.60;9.47;;;;;;;;;;5070974;28;20443;-77
2022/12/08 09:23:15;;;;;;;13.47;10.97;;;;;;;;;;5070246;28;20436;-77
2022/12/08 09:25:44;;;;;;;11.43;10.33;;;;;;;;;;5070808;28;20467;-78
2022/12/08 09:28:11;;;;;;;14.27;10.20;;;;;;;;;;5070683;28;20473;-79
2022/12/08 09:30:38;;;;;;;12.90;9.80;;;;;;;;;;5070517;28;20863;-78
2022/12/08 09:33:06;;;;;;;17.83;11.93;;;;;;;;;;5063224;28;20520;-77
2022/12/08 09:35:33;;;;;;;16.67;13.20;;;;;;;;;;5053577;28;20474;-78
2022/12/08 09:38:00;;;;;;;21.27;12.73;;;;;;;;;;5051780;28;20960;-76
2022/12/08 09:40:30;;;;;;;17.47;11.83;;;;;;;;;;5050871;28;20971;-78
2022/12/08 09:43:02;;;;;;;17.80;11.30;;;;;;;;;;5050442;28;20926;-77
2022/12/08 09:45:30;;;;;;;14.90;10.80;;;;;;;;;;5050992;28;20470;-76
2022/12/08 09:48:00;;;;;;;13.30;9.60;;;;;;;;;;5051382;28;20479;-76
2022/12/08 09:50:31;;;;;;;12.10;10.87;;;;;;;;;;5052936;28;20446;-77
2022/12/08 09:53:01;;;;;;;13.63;11.83;;;;;;;;;;5052726;28;20433;-77
2022/12/08 09:55:36;;;;;;;13.10;10.57;;;;;;;;;;5054984;28;20466;-76
2022/12/08 09:58:05;;;;;;;12.10;10.77;;;;;;;;;;5054536;28;20909;-78
2022/12/08 10:00:33;;;;;;;16.03;10.10;;;;;;;;;;5053945;28;20446;-78
2022/12/08 10:03:00;;;;;;;22.47;13.00;;;;;;;;;;5052638;28;20445;-78
2022/12/08 10:05:28;;;;;;;16.27;10.80;;;;;;;;;;5051406;28;20501;-77
2022/12/08 10:08:01;;;;;;;12.00;9.17;;;;;;;;;;5059983;28;20504;-78
2022/12/08 10:10:37;;;;;;;11.37;10.10;;;;;;;;;;5053811;28;20812;-77
2022/12/08 10:13:06;;;;;;;8.73;7.93;;;;;;;;;;5051892;28;20429;-78
2022/12/08 10:15:40;;;;;;;7.00;6.37;;;;;;;;;;5051091;28;20466;-77
2022/12/08 10:18:12;;;;;;;10.43;8.10;;;;;;;;;;5051055;28;20426;-78
2022/12/08 10:20:41;;;;;;;7.47;6.80;;;;;;;;;;5051082;28;20460;-78
2022/12/08 10:23:10;;;;;;;9.90;6.83;;;;;;;;;;5049771;28;20454;-78
2022/12/08 10:25:41;;;;;;;6.87;6.27;;;;;;;;;;5070234;28;20457;-78
2022/12/08 10:28:09;;;;;;;7.60;6.70;;;;;;;;;;5074644;28;21172;-77
2022/12/08 10:30:36;;;;;;;7.03;5.90;;;;;;;;;;5068070;28;20475;-78
2022/12/08 10:33:03;;;;;;;7.47;6.77;;;;;;;;;;5053487;28;20918;-78
2022/12/08 10:35:42;;;;;;;7.77;6.77;;;;;;;;;;5056710;28;20470;-78
2022/12/08 10:38:16;;;;;;;8.90;7.20;;;;;;;;;;5055866;28;20520;-77
2022/12/08 10:40:46;;;;;;;8.47;7.10;;;;;;;;;;5053040;28;20437;-77
2022/12/08 10:43:15;;;;;;;7.20;6.50;;;;;;;;;;5069350;28;20436;-79
2022/12/08 10:45:43;;;;;;;7.17;6.40;;;;;;;;;;5070673;28;20500;-79
2022/12/08 10:48:15;;;;;;;7.20;6.60;;;;;;;;;;5074041;28;20476;-79
2022/12/08 10:50:43;;;;;;;7.93;7.13;;;;;;;;;;5074446;28;20440;-79
2022/12/08 10:53:13;;;;;;;7.57;6.97;;;;;;;;;;5073137;28;20455;-78
2022/12/08 10:55:41;;;;;;;9.40;8.60;;;;;;;;;;5074395;28;20472;-79
2022/12/08 11:01:03;;;;;;;7.37;6.67;;;;;;;;;;5162232;27;20570;-79
2022/12/08 11:03:31;;;;;;;7.10;6.40;;;;;;;;;;5150845;27;20871;-79
2022/12/08 11:05:59;;;;;;;7.90;6.63;;;;;;;;;;5139561;27;20486;-78
2022/12/08 11:08:27;;;;;;;7.77;7.07;;;;;;;;;;5130359;28;20452;-79
2022/12/08 11:10:54;;;;;;;8.07;7.30;;;;;;;;;;5116270;28;20435;-78
2022/12/08 11:13:22;;;;;;;7.80;6.33;;;;;;;;;;5098387;28;20948;-79
2022/12/08 11:15:50;;;;;;;6.27;5.67;;;;;;;;;;5105220;28;20467;-77
2022/12/08 11:18:26;;;;;;;6.10;5.60;;;;;;;;;;5109335;28;20445;-77
2022/12/08 11:20:57;;;;;;;6.50;5.90;;;;;;;;;;5111356;28;20490;-77
2022/12/08 11:23:25;;;;;;;6.70;6.00;;;;;;;;;;5128292;28;20443;-79
2022/12/08 11:25:54;;;;;;;9.03;6.47;;;;;;;;;;5130549;27;20939;-79
2022/12/08 11:28:23;;;;;;;6.93;6.20;;;;;;;;;;5114670;28;20438;-77
2022/12/08 11:30:54;;;;;;;7.80;6.50;;;;;;;;;;5126770;28;20783;-78
2022/12/08 11:33:22;;;;;;;9.60;5.90;;;;;;;;;;5128325;28;20498;-77
2022/12/08 11:35:53;;;;;;;6.50;6.00;;;;;;;;;;5133333;27;20472;-78
2022/12/08 11:38:22;;;;;;;6.60;6.00;;;;;;;;;;5133601;28;20434;-79
2022/12/08 11:40:50;;;;;;;6.77;5.70;;;;;;;;;;5134239;28;20632;-79
2022/12/08 11:43:19;;;;;;;8.20;6.03;;;;;;;;;;5130902;28;20967;-78
2022/12/08 11:45:48;;;;;;;6.77;6.00;;;;;;;;;;5129471;27;20462;-79
2022/12/08 11:48:17;;;;;;;5.77;5.27;;;;;;;;;;5129323;28;20808;-78
2022/12/08 11:50:48;;;;;;;5.90;5.30;;;;;;;;;;5122948;28;20445;-78
2022/12/08 11:53:23;;;;;;;5.40;4.90;;;;;;;;;;5107971;28;20474;-78
2022/12/08 11:55:52;;;;;;;5.77;5.00;;;;;;;;;;5107867;28;20819;-79
2022/12/08 11:58:22;;;;;;;8.43;6.30;;;;;;;;;;5107827;28;20443;-79
2022/12/08 12:00:49;;;;;;;5.50;4.97;;;;;;;;;;5107373;28;20505;-78
2022/12/08 12:03:21;;;;;;;8.30;5.80;;;;;;;;;;5108166;28;20454;-78
2022/12/08 12:05:53;;;;;;;6.13;5.53;;;;;;;;;;5108072;28;20459;-79
2022/12/08 12:08:32;;;;;;;4.97;4.57;;;;;;;;;;5109614;28;20468;-78
2022/12/08 12:11:07;;;;;;;5.90;5.40;;;;;;;;;;5104517;28;20908;-79
2022/12/08 12:13:41;;;;;;;5.90;4.73;;;;;;;;;;5095681;28;21008;-78
2022/12/08 12:16:15;;;;;;;5.53;4.97;;;;;;;;;;5094428;28;20461;-78
2022/12/08 12:18:45;;;;;;;5.50;5.00;;;;;;;;;;5093915;28;20439;-77
2022/12/08 12:21:15;;;;;;;16.17;13.23;;;;;;;;;;5093794;28;21035;-78
2022/12/08 12:23:45;;;;;;;5.77;5.27;;;;;;;;;;5096135;28;20455;-78
2022/12/08 12:26:18;;;;;;;6.40;5.20;;;;;;;;;;5098437;28;20467;-78
2022/12/08 12:28:51;;;;;;;6.27;5.67;;;;;;;;;;5096524;28;20520;-79
2022/12/08 12:31:19;;;;;;;6.03;5.53;;;;;;;;;;5093231;28;20966;-78
2022/12/08 12:33:46;;;;;;;6.03;5.40;;;;;;;;;;5091858;28;20450;-77
2022/12/08 12:36:14;;;;;;;5.60;5.10;;;;;;;;;;5092524;28;20471;-77
2022/12/08 12:39:05;;;;;;;7.60;6.07;;;;;;;;;;5097775;28;20453;-79
2022/12/08 12:41:36;;;;;;;6.27;5.67;;;;;;;;;;5091713;28;21029;-77
2022/12/08 12:44:37;;;;;;;5.83;5.23;;;;;;;;;;5091481;28;20785;-79
2022/12/08 12:47:06;;;;;;;6.47;4.83;;;;;;;;;;5091702;28;21107;-77
2022/12/08 12:49:49;;;;;;;5.60;5.10;;;;;;;;;;5092701;28;20966;-78
2022/12/08 12:52:35;;;;;;;6.10;5.50;;;;;;;;;;5098297;28;20536;-79
2022/12/08 12:55:35;;;;;;;8.10;5.83;;;;;;;;;;5092682;28;20463;-79
2022/12/08 12:58:04;;;;;;;6.23;5.63;;;;;;;;;;5092959;28;20455;-78
2022/12/08 13:00:31;;;;;;;5.80;5.30;;;;;;;;;;5096227;28;20482;-78
2022/12/08 13:02:59;;;;;;;6.57;5.90;;;;;;;;;;5091797;28;20447;-77
2022/12/08 13:05:27;;;;;;;6.83;6.13;;;;;;;;;;5091429;28;20463;-78
2022/12/08 13:07:56;;;;;;;5.80;5.30;;;;;;;;;;5090964;28;20807;-78
2022/12/08 13:10:24;;;;;;;5.40;5.00;;;;;;;;;;5091169;28;20447;-78
2022/12/08 13:13:16;;;;;;;6.00;5.50;;;;;;;;;;5090937;28;20931;-78
2022/12/08 13:15:48;;;;;;;6.50;5.30;;;;;;;;;;5070825;28;20502;-78
2022/12/08 13:18:18;;;;;;;5.90;5.40;;;;;;;;;;5070847;28;20433;-78
2022/12/08 13:20:47;;;;;;;6.27;5.77;;;;;;;;;;5070280;28;20469;-79
2022/12/08 13:23:29;;;;;;;7.13;6.43;;;;;;;;;;5069283;28;20959;-78
2022/12/08 13:26:26;;;;;;;6.70;6.10;;;;;;;;;;5069921;28;21003;-79
2022/12/08 13:29:14;;;;;;;6.80;6.10;;;;;;;;;;5070270;28;20434;-80
2022/12/08 13:31:42;;;;;;;6.90;6.10;;;;;;;;;;5063264;28;20533;-77
2022/12/08 13:34:13;;;;;;;6.53;5.97;;;;;;;;;;5079693;28;20476;-78
2022/12/08 13:36:42;;;;;;;6.90;6.30;;;;;;;;;;5078128;28;20481;-76
2022/12/08 13:39:16;;;;;;;6.00;5.40;;;;;;;;;;5079362;28;20441;-77
2022/12/08 13:41:45;;;;;;;7.43;6.27;;;;;;;;;;5080086;28;20432;-78
2022/12/08 13:44:14;;;;;;;7.80;5.80;;;;;;;;;;5078442;28;20449;-78
2022/12/08 13:46:45;;;;;;;6.97;6.20;;;;;;;;;;5073925;28;20461;-77
2022/12/08 13:49:16;;;;;;;6.80;6.10;;;;;;;;;;5072513;28;20505;-79
2022/12/08 13:51:45;;;;;;;6.07;5.57;;;;;;;;;;5074840;28;20445;-78
2022/12/08 13:54:16;;;;;;;7.53;5.23;;;;;;;;;;5072169;28;20449;-78
2022/12/08 13:56:44;;;;;;;6.20;5.60;;;;;;;;;;5072129;28;20473;-78
2022/12/08 13:59:26;;;;;;;9.80;7.90;;;;;;;;;;5071507;28;20460;-78
2022/12/08 14:01:55;;;;;;;6.63;5.97;;;;;;;;;;5073229;28;20469;-78
2022/12/08 14:04:23;;;;;;;9.80;5.73;;;;;;;;;;5071898;28;20452;-79
2022/12/08 14:06:52;;;;;;;7.10;5.60;;;;;;;;;;5071559;28;20468;-79
2022/12/08 14:09:20;;;;;;;7.03;6.23;;;;;;;;;;5070464;28;20464;-78
2022/12/08 14:11:51;;;;;;;7.33;6.57;;;;;;;;;;5069881;28;20444;-78
2022/12/08 14:14:19;;;;;;;7.73;6.27;;;;;;;;;;5079608;28;20428;-77
2022/12/08 14:16:50;;;;;;;9.93;6.37;;;;;;;;;;5089804;28;20460;-78
2022/12/08 14:19:20;;;;;;;6.90;6.07;;;;;;;;;;5089737;28;20510;-78
2022/12/08 14:21:48;;;;;;;10.77;6.70;;;;;;;;;;5090058;28;20483;-78
2022/12/08 14:24:15;;;;;;;11.67;7.60;;;;;;;;;;5090400;28;20817;-76
2022/12/08 14:26:43;;;;;;;7.13;6.30;;;;;;;;;;5102711;28;20468;-78
2022/12/08 14:29:10;;;;;;;7.20;6.07;;;;;;;;;;5110971;28;20550;-76
2022/12/08 14:31:37;;;;;;;6.73;6.13;;;;;;;;;;5111563;28;20496;-77
2022/12/08 14:34:04;;;;;;;7.13;6.20;;;;;;;;;;5093381;28;20454;-76
2022/12/08 14:36:33;;;;;;;7.30;6.57;;;;;;;;;;5090233;28;20470;-79
2022/12/08 14:39:00;;;;;;;7.57;6.63;;;;;;;;;;5091314;28;20963;-79
2022/12/08 14:41:31;;;;;;;7.40;6.70;;;;;;;;;;5091507;28;20475;-78
2022/12/08 14:43:59;;;;;;;6.97;6.37;;;;;;;;;;5090849;28;20436;-78
2022/12/08 14:46:27;;;;;;;8.50;7.70;;;;;;;;;;5091505;28;20464;-77